createdAt,value
2023-04-24T00:01:21.924Z,51.53
2023-04-24T00:03:50.702Z,51.24
2023-04-24T00:06:18.907Z,51.42
2023-04-24T00:08:46.891Z,51.29
2023-04-24T00:11:15.169Z,51.44
2023-04-24T00:13:43.278Z,51.63
2023-04-24T00:16:12.682Z,51.97
2023-04-24T00:18:40.994Z,51.80
2023-04-24T00:21:09.134Z,52.20
2023-04-24T00:23:37.248Z,52.39
2023-04-24T00:26:05.658Z,52.77
2023-04-24T00:28:33.687Z,53.02
2023-04-24T00:31:01.717Z,53.26
2023-04-24T00:33:31.492Z,52.74
2023-04-24T00:35:59.830Z,52.51
2023-04-24T00:38:27.969Z,52.12
2023-04-24T00:40:56.394Z,53.06
2023-04-24T00:43:24.493Z,53.00
2023-04-24T00:45:52.558Z,54.15
2023-04-24T00:48:22.296Z,54.61
2023-04-24T00:50:51.686Z,53.84
2023-04-24T00:53:19.860Z,54.46
2023-04-24T00:55:48.702Z,54.23
2023-04-24T00:58:16.794Z,53.83
2023-04-24T01:00:46.024Z,55.42
2023-04-24T01:03:15.908Z,54.65
2023-04-24T01:05:44.332Z,55.14
2023-04-24T01:08:13.790Z,55.61
2023-04-24T01:10:43.170Z,55.50
2023-04-24T01:13:11.253Z,55.70
2023-04-24T01:15:39.262Z,56.54
2023-04-24T01:18:09.449Z,56.75
2023-04-24T01:20:40.920Z,55.25
2023-04-24T01:23:11.450Z,55.52
2023-04-24T01:25:40.041Z,55.06
2023-04-24T01:28:08.109Z,54.93
2023-04-24T01:30:36.392Z,55.21
2023-04-24T01:33:04.877Z,56.05
2023-04-24T01:35:33.481Z,57.20
2023-04-24T01:38:01.908Z,58.64
2023-04-24T01:40:31.457Z,55.81
2023-04-24T01:43:00.079Z,56.16
2023-04-24T01:45:28.461Z,55.11
2023-04-24T01:47:56.731Z,55.36
2023-04-24T01:50:25.977Z,55.95
2023-04-24T01:52:54.245Z,55.59
2023-04-24T01:55:22.243Z,55.36
2023-04-24T01:57:54.139Z,55.53
2023-04-24T02:00:22.496Z,57.01
2023-04-24T02:02:51.084Z,56.93
2023-04-24T02:05:19.898Z,56.40
2023-04-24T02:07:47.976Z,56.68
2023-04-24T02:10:16.655Z,56.11
2023-04-24T02:12:45.160Z,55.62
2023-04-24T02:15:14.721Z,56.49
2023-04-24T02:17:42.759Z,57.15
2023-04-24T02:20:11.620Z,55.99
2023-04-24T02:22:40.249Z,56.02
2023-04-24T02:25:09.416Z,55.75
2023-04-24T02:27:37.645Z,56.94
2023-04-24T02:30:08.521Z,55.99
2023-04-24T02:32:37.918Z,55.69
2023-04-24T02:35:06.986Z,55.80
2023-04-24T02:37:35.020Z,55.63
2023-04-24T02:40:03.084Z,55.41
2023-04-24T02:42:31.500Z,55.29
2023-04-24T02:44:59.555Z,55.67
2023-04-24T02:47:27.909Z,55.47
2023-04-24T02:49:57.457Z,55.47
2023-04-24T02:52:25.465Z,57.27
2023-04-24T02:54:54.719Z,56.50
2023-04-24T02:57:23.020Z,56.25
2023-04-24T02:59:51.128Z,57.75
2023-04-24T03:02:19.339Z,57.58
2023-04-24T03:04:48.797Z,56.96
2023-04-24T03:07:18.516Z,58.54
2023-04-24T03:09:46.495Z,56.43
2023-04-24T03:12:18.129Z,56.41
2023-04-24T03:14:46.403Z,57.54
2023-04-24T03:17:14.706Z,58.62
2023-04-24T03:19:42.861Z,57.73
2023-04-24T03:22:12.313Z,57.31
2023-04-24T03:24:42.315Z,57.80
2023-04-24T03:27:10.484Z,58.41
2023-04-24T03:29:39.671Z,59.16
2023-04-24T03:32:08.302Z,58.02
2023-04-24T03:34:36.681Z,57.93
2023-04-24T03:37:04.978Z,57.77
2023-04-24T03:39:33.517Z,56.75
2023-04-24T03:42:03.439Z,57.68
2023-04-24T03:44:31.857Z,58.25
2023-04-24T03:47:00.424Z,57.00
2023-04-24T03:49:28.597Z,57.33
2023-04-24T03:51:56.652Z,56.04
2023-04-24T03:54:25.043Z,56.50
2023-04-24T03:56:53.435Z,56.40
2023-04-24T03:59:23.061Z,55.77
2023-04-24T04:01:51.553Z,56.09
2023-04-24T04:04:19.894Z,55.67
2023-04-24T04:06:48.437Z,55.48
2023-04-24T04:09:16.508Z,55.32
2023-04-24T04:11:44.850Z,55.36
2023-04-24T04:14:13.930Z,55.12
2023-04-24T04:16:44.160Z,55.20
2023-04-24T04:19:12.971Z,55.44
2023-04-24T04:21:40.973Z,55.59
2023-04-24T04:24:09.651Z,55.55
2023-04-24T04:26:38.758Z,54.96
2023-04-24T04:29:07.773Z,55.06
2023-04-24T04:31:35.954Z,54.82
2023-04-24T04:34:06.916Z,54.81
2023-04-24T04:36:37.698Z,55.01
2023-04-24T04:39:07.052Z,54.92
2023-04-24T04:41:36.583Z,55.27
2023-04-24T04:44:05.636Z,55.12
2023-04-24T04:46:35.196Z,55.20
2023-04-24T04:49:06.114Z,55.48
2023-04-24T04:51:34.351Z,55.66
2023-04-24T04:54:02.621Z,55.58
2023-04-24T04:56:31.556Z,55.34
2023-04-24T04:59:01.261Z,55.29
2023-04-24T05:01:29.588Z,55.37
2023-04-24T05:03:57.948Z,55.25
2023-04-24T05:06:28.600Z,55.05
2023-04-24T05:08:58.323Z,55.47
2023-04-24T05:11:27.886Z,55.42
2023-04-24T05:13:56.707Z,55.73
2023-04-24T05:16:25.030Z,55.17
2023-04-24T05:18:54.282Z,54.93
2023-04-24T05:21:23.055Z,55.22
2023-04-24T05:23:52.833Z,55.17
2023-04-24T05:26:22.070Z,55.20
2023-04-24T05:28:50.973Z,54.75
2023-04-24T05:31:19.373Z,54.80
2023-04-24T05:33:47.635Z,55.11
2023-04-24T05:36:16.014Z,55.09
2023-04-24T05:38:44.200Z,55.29
2023-04-24T05:41:13.903Z,54.75
2023-04-24T05:43:41.999Z,54.71
2023-04-24T05:46:09.985Z,54.74
2023-04-24T05:48:38.261Z,54.90
2023-04-24T05:51:06.328Z,54.97
2023-04-24T05:53:34.406Z,54.73
2023-04-24T05:56:02.940Z,54.68
2023-04-24T05:58:32.867Z,54.55
2023-04-24T06:01:02.449Z,55.10
2023-04-24T06:03:31.083Z,54.93
2023-04-24T06:05:59.229Z,54.85
2023-04-24T06:08:27.531Z,54.61
2023-04-24T06:10:55.914Z,54.45
2023-04-24T06:13:23.901Z,54.50
2023-04-24T06:15:54.617Z,54.31
2023-04-24T06:18:22.969Z,54.63
2023-04-24T06:20:50.943Z,54.36
2023-04-24T06:23:19.017Z,54.40
2023-04-24T06:25:49.647Z,54.20
2023-04-24T06:28:17.661Z,54.40
2023-04-24T06:30:45.673Z,54.41
2023-04-24T06:33:20.744Z,54.05
2023-04-24T06:35:49.892Z,54.00
2023-04-24T06:38:18.132Z,53.67
2023-04-24T06:40:46.062Z,53.61
2023-04-24T06:43:14.115Z,53.80
2023-04-24T06:45:44.291Z,53.54
2023-04-24T06:48:12.484Z,53.47
2023-04-24T06:50:41.883Z,53.40
2023-04-24T06:53:12.071Z,53.66
2023-04-24T06:55:40.379Z,53.33
2023-04-24T06:58:09.030Z,53.44
2023-04-24T07:00:37.253Z,53.58
2023-04-24T07:03:06.456Z,53.23
2023-04-24T07:05:36.150Z,53.29
2023-04-24T07:08:07.773Z,53.11
2023-04-24T07:10:36.717Z,52.76
2023-04-24T07:13:05.080Z,52.52
2023-04-24T07:15:33.454Z,52.40
2023-04-24T07:18:04.071Z,52.51
2023-04-24T07:20:34.295Z,52.57
2023-04-24T07:23:02.541Z,52.54
2023-04-24T07:25:32.409Z,52.57
2023-04-24T07:28:00.815Z,52.46
2023-04-24T07:30:29.866Z,52.71
2023-04-24T07:32:57.926Z,52.61
2023-04-24T07:35:27.060Z,52.49
2023-04-24T07:37:55.733Z,52.47
2023-04-24T07:40:24.308Z,52.51
2023-04-24T07:42:53.915Z,52.39
2023-04-24T07:45:21.980Z,52.14
2023-04-24T07:47:50.055Z,52.22
2023-04-24T07:50:18.433Z,51.44
2023-04-24T07:52:46.511Z,51.32
2023-04-24T07:55:14.794Z,51.51
2023-04-24T07:57:43.155Z,51.11
2023-04-24T08:00:14.889Z,51.05
2023-04-24T08:02:43.851Z,50.93
2023-04-24T08:05:12.210Z,50.67
2023-04-24T08:07:40.820Z,50.27
2023-04-24T08:10:10.067Z,50.45
2023-04-24T08:12:38.823Z,50.17
2023-04-24T08:15:08.256Z,49.80
2023-04-24T08:17:37.906Z,49.49
2023-04-24T08:20:11.230Z,47.67
2023-04-24T08:22:39.420Z,48.32
2023-04-24T08:25:08.063Z,47.71
2023-04-24T08:27:37.623Z,48.60
2023-04-24T08:30:07.096Z,48.77
2023-04-24T08:32:35.184Z,48.72
2023-04-24T08:35:04.988Z,48.45
2023-04-24T08:37:33.290Z,47.98
2023-04-24T08:40:01.384Z,48.32
2023-04-24T08:42:32.378Z,47.80
2023-04-24T08:45:00.594Z,47.94
2023-04-24T08:47:30.929Z,47.43
2023-04-24T08:50:00.720Z,46.40
2023-04-24T08:52:30.613Z,48.08
2023-04-24T08:54:59.054Z,46.23
2023-04-24T08:57:27.911Z,46.83
2023-04-24T08:59:56.815Z,45.52
2023-04-24T09:02:25.875Z,47.14
2023-04-24T09:04:54.709Z,47.15
2023-04-24T09:07:24.534Z,47.09
2023-04-24T09:09:54.451Z,47.11
2023-04-24T09:12:22.845Z,47.48
2023-04-24T09:14:52.265Z,47.46
2023-04-24T09:17:20.323Z,46.96
2023-04-24T09:19:48.722Z,44.22
2023-04-24T09:22:17.174Z,45.50
2023-04-24T09:24:47.338Z,44.51
2023-04-24T09:27:18.780Z,45.07
2023-04-24T09:29:55.770Z,42.77
2023-04-24T09:32:26.699Z,42.38
2023-04-24T09:35:08.904Z,44.32
2023-04-24T09:37:38.749Z,41.70
2023-04-24T09:40:11.175Z,44.29
2023-04-24T09:42:40.911Z,42.34
2023-04-24T09:45:15.578Z,43.30
2023-04-24T09:47:45.000Z,42.69
2023-04-24T09:50:18.294Z,44.41
2023-04-24T09:52:48.861Z,41.08
2023-04-24T09:55:20.088Z,38.41
2023-04-24T09:57:54.485Z,39.49
2023-04-24T10:00:27.957Z,40.29
2023-04-24T10:02:57.865Z,41.12
2023-04-24T10:05:27.385Z,42.45
2023-04-24T10:07:59.606Z,41.54
2023-04-24T10:10:28.193Z,39.17
2023-04-24T10:12:57.611Z,40.74
2023-04-24T10:15:26.428Z,39.36
2023-04-24T10:17:54.814Z,39.26
2023-04-24T10:20:25.665Z,41.96
2023-04-24T10:22:55.629Z,39.14
2023-04-24T10:25:25.065Z,41.47
2023-04-24T10:27:54.544Z,38.73
2023-04-24T10:30:23.997Z,40.95
2023-04-24T10:32:52.317Z,41.55
2023-04-24T10:35:23.442Z,42.02
2023-04-24T10:37:56.385Z,39.46
2023-04-24T10:40:29.108Z,39.59
2023-04-24T10:42:59.010Z,38.25
2023-04-24T10:45:29.000Z,41.06
2023-04-24T10:48:04.379Z,40.26
2023-04-24T10:50:45.837Z,39.74
2023-04-24T10:53:18.990Z,38.60
2023-04-24T10:55:49.680Z,38.89
2023-04-24T10:58:18.498Z,40.70
2023-04-24T11:00:58.372Z,39.90
2023-04-24T11:03:28.883Z,36.82
2023-04-24T11:06:03.162Z,39.47
2023-04-24T11:08:33.520Z,38.45
2023-04-24T11:11:04.656Z,39.11
2023-04-24T11:14:08.454Z,39.92
2023-04-24T11:16:43.611Z,37.91
2023-04-24T11:19:20.611Z,38.02
2023-04-24T11:21:52.866Z,37.88
2023-04-24T11:24:29.901Z,39.43
2023-04-24T11:26:59.439Z,37.41
2023-04-24T11:29:45.007Z,38.43
2023-04-24T11:32:25.405Z,37.17
2023-04-24T11:34:55.268Z,38.48
2023-04-24T11:37:24.819Z,40.21
2023-04-24T11:39:54.547Z,39.18
2023-04-24T11:42:24.011Z,36.74
2023-04-24T11:44:53.898Z,39.21
2023-04-24T11:47:29.774Z,38.75
2023-04-24T11:49:57.903Z,35.01
2023-04-24T11:52:26.389Z,37.82
2023-04-24T11:54:54.514Z,38.87
2023-04-24T11:57:23.706Z,38.31
2023-04-24T11:59:52.184Z,37.99
2023-04-24T12:02:25.801Z,35.38
2023-04-24T12:04:55.004Z,35.76
2023-04-24T12:07:23.719Z,37.98
2023-04-24T12:09:58.935Z,37.96
2023-04-24T12:12:29.401Z,37.18
2023-04-24T12:14:58.869Z,39.03
2023-04-24T12:17:30.312Z,39.22
2023-04-24T12:20:03.463Z,37.97
2023-04-24T12:22:46.475Z,37.22
2023-04-24T12:25:15.223Z,35.42
2023-04-24T12:27:43.590Z,37.58
2023-04-24T12:30:14.413Z,38.16
2023-04-24T12:32:48.407Z,37.27
2023-04-24T12:35:21.895Z,37.28
2023-04-24T12:37:50.603Z,36.84
2023-04-24T12:40:21.165Z,37.86
2023-04-24T12:42:51.269Z,38.63
2023-04-24T12:45:21.081Z,38.28
2023-04-24T12:47:50.881Z,37.08
2023-04-24T12:50:19.164Z,36.79
2023-04-24T12:52:47.720Z,38.42
2023-04-24T12:55:15.989Z,38.52
2023-04-24T12:57:44.034Z,36.41
2023-04-24T13:00:13.190Z,37.75
2023-04-24T13:02:41.418Z,36.98
2023-04-24T13:05:12.678Z,38.26
2023-04-24T13:07:41.258Z,38.17
2023-04-24T13:10:10.593Z,36.88
2023-04-24T13:12:39.712Z,37.73
2023-04-24T13:15:09.324Z,37.61
2023-04-24T13:17:37.417Z,37.59
2023-04-24T13:20:06.580Z,36.97
2023-04-24T13:22:37.850Z,37.39
2023-04-24T13:25:08.306Z,35.98
2023-04-24T13:27:36.639Z,37.16
2023-04-24T13:30:05.359Z,37.29
2023-04-24T13:32:34.387Z,36.68
2023-04-24T13:35:03.429Z,35.77
2023-04-24T13:37:31.743Z,37.94
2023-04-24T13:40:01.027Z,37.57
2023-04-24T13:42:29.583Z,37.38
2023-04-24T13:44:57.587Z,38.66
2023-04-24T13:47:25.937Z,38.01
2023-04-24T13:49:55.306Z,36.55
2023-04-24T13:52:23.452Z,38.39
2023-04-24T13:54:51.445Z,38.53
2023-04-24T13:57:21.357Z,37.41
2023-04-24T13:59:49.549Z,38.46
2023-04-24T14:02:17.857Z,38.54
2023-04-24T14:04:46.515Z,38.96
2023-04-24T14:07:14.706Z,39.22
2023-04-24T14:09:42.648Z,38.91
2023-04-24T14:12:10.881Z,39.06
2023-04-24T14:14:40.288Z,39.15
2023-04-24T14:17:08.325Z,39.11
2023-04-24T14:19:36.632Z,38.90
2023-04-24T14:22:04.675Z,39.32
2023-04-24T14:24:32.767Z,38.91
2023-04-24T14:27:01.391Z,40.05
2023-04-24T14:29:29.329Z,40.29
2023-04-24T14:31:58.792Z,40.15
2023-04-24T14:34:27.124Z,40.29
2023-04-24T14:36:55.705Z,40.34
2023-04-24T14:39:23.812Z,40.18
2023-04-24T14:41:52.071Z,40.42
2023-04-24T14:44:20.501Z,40.04
2023-04-24T14:46:49.001Z,40.27
2023-04-24T14:49:19.052Z,40.15
2023-04-24T14:51:47.506Z,39.97
2023-04-24T14:54:15.549Z,39.84
2023-04-24T14:56:45.351Z,39.14
2023-04-24T14:59:13.374Z,39.72
2023-04-24T15:01:41.366Z,38.93
2023-04-24T15:04:09.826Z,39.67
2023-04-24T15:06:39.617Z,39.70
2023-04-24T15:09:07.659Z,39.78
2023-04-24T15:11:35.969Z,39.99
2023-04-24T15:14:03.955Z,40.78
2023-04-24T15:16:33.548Z,40.96
2023-04-24T15:19:02.457Z,41.42
2023-04-24T15:21:30.529Z,40.82
2023-04-24T15:23:59.900Z,39.76
2023-04-24T15:26:28.196Z,40.10
2023-04-24T15:28:56.222Z,40.48
2023-04-24T15:31:24.479Z,40.41
2023-04-24T15:33:52.768Z,39.72
2023-04-24T15:36:22.146Z,40.10
2023-04-24T15:38:50.075Z,40.90
2023-04-24T15:41:19.712Z,41.14
2023-04-24T15:43:48.007Z,41.30
2023-04-24T15:46:16.225Z,40.50
2023-04-24T15:48:44.859Z,39.70
2023-04-24T15:51:12.865Z,39.84
2023-04-24T15:53:40.926Z,38.55
2023-04-24T15:56:09.519Z,38.13
2023-04-24T15:58:39.041Z,37.20
2023-04-24T16:01:07.635Z,37.59
2023-04-24T16:03:36.102Z,36.59
2023-04-24T16:06:04.265Z,38.48
2023-04-24T16:08:32.276Z,37.01
2023-04-24T16:11:00.710Z,37.68
2023-04-24T16:13:29.124Z,37.56
2023-04-24T16:15:58.585Z,37.86
2023-04-24T16:18:27.044Z,36.21
2023-04-24T16:20:55.198Z,37.59
2023-04-24T16:23:23.166Z,38.38
2023-04-24T16:25:51.566Z,38.82
2023-04-24T16:28:19.957Z,39.86
2023-04-24T16:30:47.951Z,40.21
2023-04-24T16:33:17.456Z,40.68
2023-04-24T16:35:46.737Z,40.93
2023-04-24T16:38:14.714Z,40.54
2023-04-24T16:40:43.011Z,41.05
2023-04-24T16:43:11.119Z,41.11
2023-04-24T16:45:39.146Z,41.66
2023-04-24T16:48:07.771Z,41.26
2023-04-24T16:50:37.222Z,41.27
2023-04-24T16:53:05.515Z,41.38
2023-04-24T16:55:33.733Z,41.15
2023-04-24T16:58:02.646Z,41.72
2023-04-24T17:00:30.812Z,43.08
2023-04-24T17:02:59.274Z,41.83
2023-04-24T17:05:27.474Z,42.94
2023-04-24T17:07:57.277Z,42.14
2023-04-24T17:10:25.663Z,42.76
2023-04-24T17:12:53.675Z,42.77
2023-04-24T17:15:21.798Z,41.64
2023-04-24T17:17:50.390Z,42.58
2023-04-24T17:20:22.779Z,42.41
2023-04-24T17:22:52.379Z,42.88
2023-04-24T17:25:21.883Z,42.43
2023-04-24T17:27:50.044Z,42.13
2023-04-24T17:30:18.696Z,42.69
2023-04-24T17:32:46.908Z,42.71
2023-04-24T17:35:15.306Z,43.07
2023-04-24T17:37:43.732Z,42.50
2023-04-24T17:40:13.333Z,42.52
2023-04-24T17:42:42.762Z,42.66
2023-04-24T17:45:12.084Z,43.64
2023-04-24T17:47:40.409Z,43.19
2023-04-24T17:50:08.980Z,43.38
2023-04-24T17:52:37.337Z,42.88
2023-04-24T17:55:06.155Z,43.46
2023-04-24T17:57:34.328Z,44.17
2023-04-24T18:00:04.843Z,44.18
2023-04-24T18:02:34.243Z,44.03
2023-04-24T18:05:02.728Z,43.63
2023-04-24T18:07:30.910Z,43.54
2023-04-24T18:09:58.915Z,43.32
2023-04-24T18:12:27.421Z,45.71
2023-04-24T18:15:12.467Z,44.39
2023-04-24T18:17:44.073Z,44.66
2023-04-24T18:20:12.995Z,44.15
2023-04-24T18:22:41.665Z,44.56
2023-04-24T18:25:11.160Z,44.60
2023-04-24T18:27:40.360Z,44.80
2023-04-24T18:30:12.606Z,45.86
2023-04-24T18:32:44.279Z,46.54
2023-04-24T18:35:12.578Z,45.00
2023-04-24T18:37:41.036Z,44.92
2023-04-24T18:40:10.348Z,44.99
2023-04-24T18:42:38.411Z,44.84
2023-04-24T18:45:07.535Z,44.61
2023-04-24T18:47:35.915Z,45.46
2023-04-24T18:50:05.520Z,44.56
2023-04-24T18:52:33.606Z,46.01
2023-04-24T18:55:03.527Z,45.25
2023-04-24T18:57:31.606Z,46.44
2023-04-24T18:59:59.954Z,45.42
2023-04-24T19:02:28.464Z,46.37
2023-04-24T19:04:56.636Z,45.08
2023-04-24T19:07:26.178Z,45.43
2023-04-24T19:09:54.466Z,46.02
2023-04-24T19:12:23.137Z,45.41
2023-04-24T19:14:51.713Z,46.13
2023-04-24T19:17:23.598Z,46.08
2023-04-24T19:19:52.306Z,45.46
2023-04-24T19:22:21.262Z,46.29
2023-04-24T19:24:50.663Z,45.60
2023-04-24T19:27:18.733Z,46.51
2023-04-24T19:29:47.262Z,46.11
2023-04-24T19:32:15.594Z,45.39
2023-04-24T19:34:44.002Z,45.50
2023-04-24T19:37:12.521Z,45.71
2023-04-24T19:39:40.555Z,45.38
2023-04-24T19:42:09.954Z,45.56
2023-04-24T19:44:38.435Z,45.47
2023-04-24T19:47:06.620Z,45.61
2023-04-24T19:49:34.683Z,45.47
2023-04-24T19:52:02.995Z,45.62
2023-04-24T19:54:31.127Z,45.82
2023-04-24T19:56:59.263Z,45.94
2023-04-24T19:59:28.962Z,46.01
2023-04-24T20:01:57.275Z,46.08
2023-04-24T20:04:26.062Z,46.24
2023-04-24T20:06:54.230Z,46.33
2023-04-24T20:09:23.249Z,46.62
2023-04-24T20:11:53.578Z,46.35
2023-04-24T20:14:21.996Z,46.25
2023-04-24T20:16:51.485Z,46.37
2023-04-24T20:19:20.885Z,46.23
2023-04-24T20:21:49.171Z,47.50
2023-04-24T20:24:17.198Z,47.21
2023-04-24T20:26:45.633Z,47.14
2023-04-24T20:29:13.925Z,47.44
2023-04-24T20:31:42.351Z,47.04
2023-04-24T20:34:12.167Z,47.22
2023-04-24T20:36:41.827Z,47.45
2023-04-24T20:39:11.837Z,47.25
2023-04-24T20:41:40.704Z,47.41
2023-04-24T20:44:08.769Z,47.53
2023-04-24T20:46:37.118Z,48.20
2023-04-24T20:49:05.371Z,47.82
2023-04-24T20:51:34.733Z,47.87
2023-04-24T20:54:03.896Z,47.73
2023-04-24T20:56:32.448Z,47.79
2023-04-24T20:59:01.646Z,47.61
2023-04-24T21:01:30.386Z,48.34
2023-04-24T21:03:58.649Z,47.97
2023-04-24T21:06:27.296Z,48.09
2023-04-24T21:08:56.909Z,48.15
2023-04-24T21:11:24.993Z,49.35
2023-04-24T21:13:53.105Z,48.49
2023-04-24T21:16:21.547Z,48.42
2023-04-24T21:18:49.800Z,48.32
2023-04-24T21:21:17.785Z,48.05
2023-04-24T21:23:46.100Z,48.13
2023-04-24T21:26:15.519Z,48.45
2023-04-24T21:28:43.843Z,48.50
2023-04-24T21:31:12.504Z,48.95
2023-04-24T21:33:40.532Z,48.58
2023-04-24T21:36:09.018Z,49.15
2023-04-24T21:38:37.404Z,48.99
2023-04-24T21:41:05.409Z,48.96
2023-04-24T21:43:43.951Z,49.17
2023-04-24T21:46:13.388Z,49.04
2023-04-24T21:48:41.396Z,49.37
2023-04-24T21:51:09.606Z,49.04
2023-04-24T21:53:37.902Z,48.78
2023-04-24T21:56:06.583Z,48.81
2023-04-24T21:58:36.193Z,48.94
2023-04-24T22:01:04.612Z,49.21
2023-04-24T22:03:33.665Z,49.14
2023-04-24T22:06:02.060Z,49.37
2023-04-24T22:08:30.088Z,48.98
2023-04-24T22:10:58.611Z,49.09
2023-04-24T22:13:27.172Z,49.37
2023-04-24T22:15:56.863Z,49.45
2023-04-24T22:18:33.421Z,49.23
2023-04-24T22:21:05.397Z,49.25
2023-04-24T22:23:33.711Z,49.23
2023-04-24T22:26:01.807Z,49.19
2023-04-24T22:28:29.781Z,49.22
2023-04-24T22:30:59.522Z,49.34
2023-04-24T22:33:27.536Z,49.31
2023-04-24T22:35:55.530Z,49.40
2023-04-24T22:38:23.871Z,49.13
2023-04-24T22:40:51.939Z,49.66
2023-04-24T22:43:20.144Z,49.53
2023-04-24T22:45:48.388Z,49.65
2023-04-24T22:48:18.357Z,49.50
2023-04-24T22:50:46.741Z,49.15
2023-04-24T22:53:14.945Z,49.38
2023-04-24T22:55:43.017Z,49.52
2023-04-24T22:58:11.272Z,49.68
2023-04-24T23:00:39.630Z,49.88
2023-04-24T23:03:07.856Z,49.60
2023-04-24T23:05:37.326Z,49.84
2023-04-24T23:08:06.136Z,49.96
2023-04-24T23:10:34.231Z,49.79
2023-04-24T23:13:02.264Z,49.87
2023-04-24T23:15:30.567Z,49.54
2023-04-24T23:17:58.739Z,49.84
2023-04-24T23:20:27.465Z,50.03
2023-04-24T23:22:57.232Z,49.55
2023-04-24T23:25:25.295Z,49.63
2023-04-24T23:27:53.337Z,49.65
2023-04-24T23:30:21.739Z,50.61
2023-04-24T23:32:49.947Z,50.14
2023-04-24T23:35:18.280Z,50.10
2023-04-24T23:37:46.760Z,49.79
2023-04-24T23:40:16.238Z,49.53
2023-04-24T23:42:44.663Z,49.90
2023-04-24T23:45:13.846Z,50.23
2023-04-24T23:47:42.018Z,50.40
2023-04-24T23:50:11.045Z,50.41
2023-04-24T23:52:39.250Z,50.38
2023-04-24T23:55:09.356Z,50.58
2023-04-24T23:57:38.836Z,50.79
